Latest Weather Observations for Parawa West

IDS60901

Issued at 2:21 pm CST Friday 30 September 2016 (issued every 10 minutes, with the page automatically refreshed every 10 minutes)

About weather observations | Map of Adelaide area stations | Latest observations for Adelaide area | Other Formats
Station Details ID: 023875 Name: SECOND VALLEY FOREST AWS Lat: -35.57 Lon: 138.29 Height: 341.0 m
Data from the previous 72 hours. | See also: Recent months at Parawa West
Date/Time
CST
Temp
°C
App
Temp
°C
Dew
Point
°C
Rel
Hum
%
Delta-T
°C
Wind Press
QNH
hPa
Press
MSL
hPa
Rain since
9am
mm
Dir  Spd
km/h
Gust
km/h
Spd
kts
Gust
kts
30/02:00pm 10.8 6.6 8.2 84 1.3 SW 20 30 11 16 1003.5 1003.4 0.0
30/01:30pm 10.8 5.4 8.0 83 1.4 WSW 26 39 14 21 1003.5 1003.4 0.0
30/01:00pm 10.7 5.7 8.1 84 1.3 WSW 24 37 13 20 1003.5 1003.4 0.0
30/12:52pm 10.8 5.2 8.6 86 1.1 WSW 28 46 15 25 1003.6 1003.5 0.0
30/12:30pm 10.6 5.8 9.0 90 0.8 WSW 24 41 13 22 1003.5 1003.4 0.0
30/12:00pm 10.2 4.9 8.5 89 0.9 WSW 26 43 14 23 1003.2 1003.1 0.0
30/11:35am 9.9 4.0 7.5 85 1.2 WSW 28 46 15 25 1003.1 1003.0 0.0
30/11:30am 10.8 6.1 7.9 82 1.4 WSW 22 33 12 18 1003.0 1002.9 0.0
30/11:00am 10.6 5.6 8.0 84 1.3 WSW 24 39 13 21 1003.0 1002.9 0.0
30/10:30am 10.5 6.3 8.1 85 1.2 SW 20 37 11 20 1002.7 1002.6 0.0
30/10:00am 9.7 5.5 8.3 91 0.7 WSW 20 35 11 19 1002.6 1002.5 0.0
30/09:30am 10.0 5.4 8.3 89 0.8 SW 22 39 12 21 1002.0 1001.9 0.0
30/09:00am 9.4 5.4 8.9 97 0.3 SW 20 35 11 19 1001.4 1001.3 0.2
30/08:34am 9.0 3.3 8.2 95 0.4 SW 28 48 15 26 1001.1 1001.0 0.2
30/08:30am 9.3 3.3 8.7 96 0.3 SW 30 46 16 25 1001.2 1001.1 0.2
30/08:23am 9.4 3.8 8.9 97 0.2 SW 28 46 15 25 1000.9 1000.8 0.2
30/08:00am 9.3 3.8 9.0 98 0.2 SW 28 43 15 23 1000.6 1000.5 0.2
30/07:35am 9.2 3.6 8.9 98 0.1 SW 28 50 15 27 1000.3 1000.2 0.2
30/07:30am 9.3 4.6 9.2 99 0.1 WSW 24 43 13 23 1000.3 1000.2 0.2
30/07:15am 9.5 4.0 9.2 98 0.2 SW 28 50 15 27 1000.0 999.9 0.2
30/07:00am 9.2 5.2 9.1 99 0.1 WSW 20 33 11 18 999.8 999.7 0.2
30/06:30am 8.8 5.2 8.5 98 0.1 W 17 30 9 16 999.4 999.3 0.2
30/06:00am 8.9 4.8 8.5 97 0.2 W 20 32 11 17 999.0 998.8 0.0
30/05:30am 8.7 5.0 8.1 96 0.3 W 17 24 9 13 998.4 998.3 0.0
30/05:00am 8.5 5.9 7.7 95 0.4 W 11 17 6 9 998.2 998.1 0.0
30/04:30am 8.5 5.0 7.4 93 0.5 WSW 15 26 8 14 998.1 998.0 0.0
30/04:00am 8.7 4.8 7.3 91 0.7 SW 17 28 9 15 997.7 997.6 0.0
30/03:30am 8.5 4.3 7.3 92 0.6 SW 19 30 10 16 997.3 997.2 0.0
30/03:00am 8.5 4.1 7.3 92 0.6 SSW 20 28 11 15 996.8 996.6 0.0
30/02:30am 8.9 3.8 7.7 92 0.6 SSW 24 35 13 19 996.4 996.2 0.0
30/02:00am 8.5 2.9 7.3 92 0.6 SSW 26 33 14 18 996.1 995.9 0.0
30/01:30am 8.6 4.0 8.0 96 0.3 SSW 22 32 12 17 996.0 995.8 0.0
30/01:00am 8.3 2.4 7.4 94 0.4 SSW 28 41 15 22 995.3 995.2 0.0
30/12:30am 7.6 2.8 7.3 98 0.1 S 22 28 12 15 994.9 994.8 0.0
30/12:00am 8.0 2.2 7.9 99 0.0 S 28 39 15 21 994.3 994.1 0.0
 
Date/Time
CST
Temp
°C
App
Temp
°C
Dew
Point
°C
Rel
Hum
%
Delta-T
°C
Wind Press
QNH
hPa
Press
MSL
hPa
Rain since
9am
mm
Dir  Spd
km/h
Gust
km/h
Spd
kts
Gust
kts
29/11:30pm 7.9 1.3 7.6 98 0.1 SSW 32 44 17 24 993.6 993.4 0.0
29/11:00pm 8.2 2.1 8.1 99 0.0 S 30 43 16 23 992.3 992.2 0.0
29/10:30pm 9.0 2.7 9.0 100 0.0 WSW 32 54 17 29 991.4 991.2 0.0
29/10:00pm 8.7 1.4 8.6 99 0.0 W 37 57 20 31 991.3 991.1 0.0
29/09:36pm 8.7 2.3 8.6 99 0.0 W 32 56 17 30 991.3 991.1 0.0
29/09:30pm 8.7 1.7 8.6 99 0.0 W 35 54 19 29 991.4 991.2 0.0
29/09:00pm 8.6 0.8 8.3 98 0.1 W 39 57 21 31 991.2 991.0 0.0
29/08:33pm 8.6 0.0 8.3 98 0.1 W 43 82 23 44 990.9 990.7 0.0
29/08:30pm 8.6 0.8 8.3 98 0.1 W 39 63 21 34 990.9 990.7 0.0
29/08:00pm 8.7 0.5 8.3 97 0.2 W 41 69 22 37 990.8 990.6 0.0
29/07:30pm 8.7 0.5 8.4 98 0.1 WSW 41 70 22 38 990.3 990.1 0.0
29/07:00pm 8.8 1.4 8.5 98 0.1 WSW 37 69 20 37 990.0 989.8 0.0
29/06:30pm 8.9 1.9 8.6 98 0.2 WSW 35 61 19 33 989.3 989.1 0.0
29/06:00pm 8.9 0.8 8.5 97 0.2 WSW 41 82 22 44 988.8 988.6 0.0
29/05:30pm 9.1 1.4 8.8 98 0.2 W 39 72 21 39 988.2 988.0 0.0
29/05:00pm 9.2 1.2 8.9 98 0.1 WSW 41 63 22 34 987.5 987.3 0.0
29/04:37pm 9.4 3.9 9.1 98 0.2 WSW 28 48 15 26 987.0 986.8 0.0
29/04:30pm 9.2 5.2 8.9 98 0.2 W 20 33 11 18 987.0 986.8 0.0
29/04:00pm 9.2 6.1 8.7 97 0.2 W 15 26 8 14 986.7 986.4 0.0
29/03:30pm 9.5 6.5 7.9 90 0.8 WSW 13 22 7 12 986.2 986.0 0.0
29/03:00pm 10.2 7.0 6.9 80 1.6 SW 13 26 7 14 985.7 985.5 0.0
29/02:30pm 11.2 8.0 8.4 83 1.4 W 15 24 8 13 985.1 984.9 0.0
29/02:00pm 10.7 7.0 8.1 84 1.3 WNW 17 26 9 14 984.9 984.7 0.0
29/01:30pm 11.8 7.8 6.7 71 2.5 W 17 24 9 13 984.9 984.7 0.0
29/01:00pm 11.6 7.1 6.9 73 2.3 W 20 35 11 19 984.9 984.7 0.0
29/12:30pm 10.9 7.6 8.0 82 1.5 WSW 15 22 8 12 985.0 984.8 0.0
29/12:00pm 10.2 5.6 6.5 78 1.8 WSW 20 32 11 17 984.9 984.7 0.0
29/11:30am 10.2 4.1 6.5 78 1.8 WSW 28 43 15 23 984.4 984.1 0.0
29/11:00am 10.3 5.2 7.7 84 1.3 WSW 24 43 13 23 984.0 983.7 0.0
29/10:49am 9.8 3.9 7.6 86 1.1 WSW 28 48 15 26 983.7 983.4 0.0
29/10:30am 9.0 3.6 8.2 95 0.4 WSW 26 46 14 25 983.2 983.0 0.0
29/10:00am 8.7 3.3 7.9 95 0.4 WSW 26 54 14 29 982.5 982.3 0.0
29/09:56am 8.8 4.1 7.7 93 0.5 WSW 22 54 12 29 982.2 982.0 0.0
29/09:30am 8.8 3.8 8.2 96 0.3 SW 24 50 13 27 981.6 981.3 0.0
29/09:01am 8.1 2.2 7.7 97 0.2 WSW 28 54 15 29 980.5 980.2 0.0
29/09:00am 8.2 2.8 7.9 98 0.1 WSW 26 48 14 26 980.6 980.3 30.6
29/08:30am 8.1 2.2 7.5 96 0.3 SW 28 41 15 22 979.7 979.5 30.6
29/08:00am 7.9 3.5 7.5 97 0.2 WSW 20 33 11 18 978.6 978.3 30.6
29/07:30am 7.8 5.2 7.8 100 0.0 WSW 11 17 6 9 977.3 977.0 30.6
29/07:00am 7.5 5.2 7.5 100 0.0 NW 9 17 5 9 976.2 975.9 30.6
29/06:30am 7.6 5.3 7.6 100 0.0 NW 9 22 5 12 975.7 975.4 30.6
29/06:00am 7.1 4.7 7.1 100 0.0 W 9 24 5 13 976.1 975.8 30.6
29/05:30am 7.0 3.5 7.0 100 0.0 NNW 15 35 8 19 976.4 976.1 29.4
29/05:00am 7.0 3.4 6.9 99 0.0 NW 15 28 8 15 977.0 976.8 26.6
29/04:30am 6.7 2.3 6.6 99 0.0 NNW 19 48 10 26 978.1 977.8 23.6
29/04:00am 6.6 2.6 6.5 99 0.0 NNW 17 44 9 24 979.2 978.9 21.2
29/03:30am 6.6 2.0 6.3 98 0.1 NW 20 46 11 25 980.0 979.8 20.6
29/03:00am 6.6 1.5 5.9 95 0.3 NW 22 56 12 30 980.9 980.6 20.2
29/02:30am 7.1 2.3 5.7 91 0.7 NW 20 37 11 20 981.8 981.5 19.2
29/02:00am 7.3 0.6 5.6 89 0.8 NW 30 54 16 29 982.7 982.5 19.2
29/01:50am 7.3 1.0 5.6 89 0.8 NW 28 48 15 26 983.0 982.8 19.2
29/01:30am 6.7 0.7 5.2 90 0.7 NW 26 48 14 26 984.1 983.8 19.2
29/01:04am 7.4 0.3 5.4 87 0.9 NNW 32 56 17 30 985.2 985.0 19.2
29/01:00am 7.5 0.4 5.5 87 0.9 NW 32 50 17 27 985.4 985.2 19.2
29/12:30am 7.7 0.9 5.3 85 1.1 NNW 30 54 16 29 986.6 986.3 19.2
29/12:00am 8.1 1.0 5.7 85 1.1 NNW 32 52 17 28 987.2 987.0 19.2
 
Date/Time
CST
Temp
°C
App
Temp
°C
Dew
Point
°C
Rel
Hum
%
Delta-T
°C
Wind Press
QNH
hPa
Press
MSL
hPa
Rain since
9am
mm
Dir  Spd
km/h
Gust
km/h
Spd
kts
Gust
kts
28/11:30pm 7.9 1.2 5.7 86 1.0 NNW 30 48 16 26 988.0 987.8 19.2
28/11:08pm 8.4 1.7 5.7 83 1.2 NW 30 50 16 27 988.0 987.8 19.2
28/11:00pm 8.3 1.2 5.4 82 1.3 NW 32 46 17 25 988.4 988.2 19.2
28/10:30pm 9.1 2.4 5.7 79 1.6 NW 30 54 16 29 989.0 988.8 19.2
28/10:19pm 9.1 2.9 6.0 81 1.4 NW 28 48 15 26 989.1 988.9 19.2
28/10:00pm 9.2 2.9 5.9 80 1.5 NW 28 43 15 23 989.1 988.9 19.2
28/09:37pm 9.3 3.1 6.0 80 1.5 WNW 28 52 15 28 989.3 989.1 19.2
28/09:30pm 9.3 3.4 6.0 80 1.6 WNW 26 43 14 23 989.2 989.0 19.2
28/09:19pm 9.0 2.7 5.9 81 1.4 WNW 28 48 15 26 989.3 989.1 19.2
28/09:00pm 9.1 3.9 7.1 87 1.0 WNW 24 37 13 20 989.7 989.5 19.2
28/08:30pm 8.6 4.6 8.2 97 0.2 WNW 19 32 10 17 990.3 990.1 19.2
28/08:00pm 8.1 3.6 7.0 93 0.5 WNW 20 30 11 16 990.1 989.9 19.2
28/07:30pm 9.0 3.8 8.7 98 0.2 WNW 26 41 14 22 989.2 989.0 18.4
28/07:00pm 9.3 4.0 8.4 94 0.4 WNW 26 39 14 21 989.2 989.0 18.4
28/06:30pm 9.1 4.8 8.0 93 0.5 WNW 20 32 11 17 988.8 988.6 18.4
28/06:00pm 9.2 2.7 8.9 98 0.2 WNW 33 56 18 30 989.0 988.8 18.4
28/05:38pm 10.0 3.3 9.5 97 0.3 WNW 35 61 19 33 988.7 988.5 18.2
28/05:36pm 10.5 4.9 10.2 98 0.2 NW 30 56 16 30 988.7 988.5 18.2
28/05:34pm 11.1 6.1 10.9 99 0.1 NW 28 56 15 30 988.5 988.3 18.2
28/05:30pm 11.6 7.5 11.4 99 0.1 NW 24 35 13 19 988.5 988.3 18.2
28/05:00pm 12.0 10.4 11.7 98 0.2 NNE 11 24 6 13 987.8 987.6 16.6
28/04:30pm 10.9 9.4 10.6 98 0.2 ENE 9 17 5 9 988.1 987.9 16.0
28/04:00pm 10.4 7.2 9.8 96 0.3 NNE 17 26 9 14 989.8 989.6 11.4
28/03:30pm 10.4 4.2 9.5 94 0.5 ENE 32 46 17 25 988.3 988.1 6.8
28/03:00pm 10.6 3.5 9.5 93 0.6 ENE 37 57 20 31 989.2 989.0 6.6
28/02:55pm 10.4 2.8 9.2 92 0.6 ENE 39 57 21 31 989.6 989.4 6.6
28/02:30pm 10.4 4.2 9.9 97 0.3 NE 33 46 18 25 990.5 990.3 6.6
28/02:11pm 10.4 4.7 9.9 97 0.3 NE 30 50 16 27 991.5 991.3 6.6
28/02:00pm 10.5 5.6 10.0 97 0.3 NE 26 44 14 24 992.1 992.0 6.6
28/01:30pm 10.8 7.1 10.2 96 0.3 NE 20 32 11 17 993.7 993.5 5.6
28/01:00pm 10.2 7.3 9.7 97 0.3 NE 15 30 8 16 995.6 995.5 5.2
28/12:30pm 10.2 7.8 8.6 90 0.8 NNE 11 22 6 12 997.4 997.3 2.4
28/12:00pm 13.1 10.6 8.0 71 2.6 NW 11 24 6 13 999.0 998.8 0.0
28/11:30am 14.5 12.3 6.3 58 4.1 N 7 15 4 8 997.9 997.8 0.0
28/11:00am 15.1 10.6 6.1 55 4.4 NE 19 33 10 18 997.3 997.2 0.0
28/10:30am 15.2 12.3 6.7 57 4.3 NE 11 19 6 10 998.4 998.3 0.0
28/10:00am 16.3 13.8 6.4 52 4.9 NNE 9 20 5 11 1000.1 1000.0 0.0
28/09:30am 16.0 14.0 7.2 56 4.5 NNE 7 17 4 9 1001.1 1001.0 0.0
28/09:00am 15.2 13.3 7.5 60 3.9 NNE 7 17 4 9 1002.1 1002.0 0.2
28/08:30am 14.4 12.0 7.0 61 3.7 NNE 9 20 5 11 1003.1 1003.0 0.2
28/08:00am 13.4 11.1 7.6 68 2.9 NE 9 15 5 8 1003.9 1003.8 0.2
28/07:30am 12.0 9.6 6.9 71 2.5 NE 9 11 5 6 1004.8 1004.8 0.2
28/07:00am 10.4 8.8 6.4 76 1.9 NNE 4 7 2 4 1005.7 1005.6 0.2
28/06:30am 8.1 6.5 4.5 78 1.6 WNW 2 6 1 3 1006.1 1006.0 0.2
28/06:00am 7.5 5.7 3.7 77 1.7 WSW 2 4 1 2 1006.4 1006.3 0.2
28/05:30am 7.4 5.7 3.8 78 1.6 WSW 2 4 1 2 1006.8 1006.7 0.2
28/05:00am 7.0 5.7 4.0 81 1.3 CALM 0 2 0 1 1007.3 1007.3 0.2
28/04:30am 6.8 5.4 3.8 81 1.3 CALM 0 0 0 0 1007.4 1007.4 0.2
28/04:00am 7.1 5.5 4.4 83 1.2 SSE 2 6 1 3 1007.9 1007.9 0.2
28/03:30am 6.8 5.6 4.5 85 1.0 CALM 0 4 0 2 1008.3 1008.2 0.2
28/03:00am 7.0 5.8 4.7 85 1.0 CALM 0 2 0 1 1008.7 1008.6 0.2
28/02:30am 7.3 6.2 5.0 85 1.0 CALM 0 0 0 0 1009.2 1009.1 0.2
28/02:00am 7.2 6.1 5.0 86 1.0 CALM 0 2 0 1 1009.6 1009.6 0.2
28/01:30am 6.3 5.1 4.6 89 0.8 CALM 0 2 0 1 1010.1 1010.1 0.2
28/01:00am 7.0 5.9 5.3 89 0.8 CALM 0 2 0 1 1010.7 1010.7 0.2
28/12:30am 7.2 5.8 5.5 89 0.8 NNW 2 4 1 2 1010.9 1010.9 0.2
28/12:00am 7.6 5.9 6.1 90 0.7 NNW 4 6 2 3 1011.2 1011.1 0.2
 
Date/Time
CST
Temp
°C
App
Temp
°C
Dew
Point
°C
Rel
Hum
%
Delta-T
°C
Wind Press
QNH
hPa
Press
MSL
hPa
Rain since
9am
mm
Dir  Spd
km/h
Gust
km/h
Spd
kts
Gust
kts
27/11:30pm 7.7 6.2 6.6 93 0.5 NNW 4 9 2 5 1011.4 1011.3 0.2
27/11:00pm 7.5 6.8 6.8 95 0.3 CALM 0 0 0 0 1011.6 1011.5 0.2
27/10:30pm 7.4 6.6 6.5 94 0.4 CALM 0 4 0 2 1012.0 1012.0 0.2
27/10:00pm 7.8 7.1 7.1 95 0.3 CALM 0 0 0 0 1012.3 1012.3 0.2
27/09:30pm 8.1 7.5 7.2 94 0.4 CALM 0 0 0 0 1012.6 1012.6 0.2
27/09:00pm 8.3 7.6 7.1 92 0.6 CALM 0 2 0 1 1012.8 1012.8 0.2
27/08:30pm 8.6 7.6 7.4 92 0.6 NW 2 4 1 2 1013.1 1013.1 0.2
27/08:00pm 8.2 7.5 7.0 92 0.6 CALM 0 0 0 0 1013.1 1013.1 0.2
27/07:30pm 8.6 7.9 7.1 90 0.7 CALM 0 0 0 0 1013.2 1013.2 0.2
27/07:00pm 9.2 7.4 7.3 88 0.9 NW 6 7 3 4 1013.1 1013.1 0.2
27/06:30pm 9.6 7.9 7.4 86 1.1 NNW 6 9 3 5 1013.2 1013.2 0.2
27/06:00pm 10.1 7.8 7.5 84 1.3 NNW 9 13 5 7 1013.1 1013.1 0.2
27/05:30pm 11.2 7.7 7.3 77 1.9 NW 15 22 8 12 1012.9 1012.9 0.2
27/05:00pm 11.7 7.8 7.2 74 2.2 NW 17 24 9 13 1012.8 1012.8 0.2
27/04:30pm 12.3 8.2 6.4 67 2.9 NW 17 28 9 15 1012.9 1012.9 0.2
27/04:00pm 12.3 7.7 6.6 68 2.8 WNW 20 33 11 18 1013.1 1013.1 0.2
27/03:30pm 12.8 8.6 7.3 69 2.7 NW 19 28 10 15 1013.1 1013.1 0.2
27/03:00pm 12.4 6.7 6.9 69 2.7 WNW 26 39 14 21 1013.1 1013.1 0.2
27/02:30pm 12.1 6.3 6.4 68 2.8 WNW 26 37 14 20 1013.2 1013.2 0.2

Latest Capital City Observations: Canberra | Sydney | Melbourne | Brisbane | Adelaide | Perth | Hobart | Darwin

Other Formats:

Comma delimited format used in spreadsheet applications
http://www.bom.gov.au/fwo/IDS60901/IDS60901.94811.axf

JavaScript Object Notation format (JSON) in row-major order
http://www.bom.gov.au/fwo/IDS60901/IDS60901.94811.json